Time;durP1;ratioP1;P1;durP2;ratioP2;P2;SDS_P1;SDS_P2;PMS_P1;PMS_P2;Temp;Humidity;BMP_temperature;BMP_pressure;BME280_temperature;BME280_humidity;BME280_pressure;Samples;Min_cycle;Max_cycle;Signal;HPM_P1;HPM_P2
2023/03/11 00:02:18;;;;;;;;;;;;;;;;;;6061704;23;20008;-87
2023/03/11 00:04:46;;;;;;;;;;;;;;;;;;6063337;23;20437;-85
2023/03/11 00:07:13;;;;;;;;;;;;;;;;;;6062036;23;19957;-84
2023/03/11 00:09:46;;;;;;;;;;;;;;;;;;6062086;23;20052;-84
2023/03/11 00:12:13;;;;;;;;;;;;;;;;;;6062470;23;19921;-84
2023/03/11 00:14:47;;;;;;;;;;;;;;;;;;6062124;23;20267;-84
2023/03/11 00:17:14;;;;;;;;;;;;;;;;;;6061622;23;19957;-85
2023/03/11 00:19:41;;;;;;;;;;;;;;;;;;6063016;23;19928;-85
2023/03/11 00:22:15;;;;;;;;;;;;;;;;;;6062959;23;20338;-87
2023/03/11 00:24:42;;;;;;;;;;;;;;;;;;6063458;23;19965;-87
2023/03/11 00:27:16;;;;;;;;;;;;;;;;;;6062030;23;20008;-86
2023/03/11 00:29:44;;;;;;;;;;;;;;;;;;6062353;23;20004;-86
2023/03/11 00:32:11;;;;;;;;;;;;;;;;;;6062804;23;19926;-87
2023/03/11 00:34:44;;;;;;;;;;;;;;;;;;6063156;23;19956;-87
2023/03/11 00:37:11;;;;;;;;;;;;;;;;;;6061285;23;20403;-87
2023/03/11 00:39:45;;;;;;;;;;;;;;;;;;6063170;23;20021;-87
2023/03/11 00:42:12;;;;;;;;;;;;;;;;;;6060833;23;19922;-86
2023/03/11 00:44:39;;;;;;;;;;;;;;;;;;6061878;23;20234;-87
2023/03/11 00:47:13;;;;;;;;;;;;;;;;;;6060241;23;19922;-86
2023/03/11 00:49:40;;;;;;;;;;;;;;;;;;6061393;23;19996;-86
2023/03/11 00:52:07;;;;;;;;;;;;;;;;;;6062156;23;19989;-86
2023/03/11 00:54:41;;;;;;;;;;;;;;;;;;6061868;23;19926;-87
2023/03/11 00:57:08;;;;;;;;;;;;;;;;;;6061384;23;19921;-86
2023/03/11 00:59:42;;;;;;;;;;;;;;;;;;6061776;23;20279;-86
2023/03/11 01:02:09;;;;;;;;;;;;;;;;;;6060992;23;20329;-87
2023/03/11 01:04:36;;;;;;;;;;;;;;;;;;6060969;23;19930;-87
2023/03/11 01:07:10;;;;;;;;;;;;;;;;;;6061329;23;20015;-87
2023/03/11 01:09:37;;;;;;;;;;;;;;;;;;6060230;23;20004;-86
2023/03/11 01:12:11;;;;;;;;;;;;;;;;;;6059439;23;19931;-86
2023/03/11 01:14:38;;;;;;;;;;;;;;;;;;6061308;23;20000;-86
2023/03/11 01:17:05;;;;;;;;;;;;;;;;;;6061561;23;19996;-86
2023/03/11 01:19:39;;;;;;;;;;;;;;;;;;6061425;23;19925;-86
2023/03/11 01:22:06;;;;;;;;;;;;;;;;;;6059769;23;20009;-86
2023/03/11 01:24:40;;;;;;;;;;;;;;;;;;6061826;23;20247;-87
2023/03/11 01:27:07;;;;;;;;;;;;;;;;;;6058716;23;19973;-86
2023/03/11 01:29:35;;;;;;;;;;;;;;;;;;6060303;23;20000;-86
2023/03/11 01:32:08;;;;;;;;;;;;;;;;;;6060612;23;19926;-87
2023/03/11 01:34:35;;;;;;;;;;;;;;;;;;6060681;23;19932;-87
2023/03/11 01:37:02;;;;;;;;;;;;;;;;;;6057604;23;20433;-86
2023/03/11 01:39:36;;;;;;;;;;;;;;;;;;6062937;23;19925;-86
2023/03/11 01:42:03;;;;;;;;;;;;;;;;;;6060553;23;19993;-86
2023/03/11 01:44:37;;;;;;;;;;;;;;;;;;6061647;23;20292;-87
2023/03/11 01:47:04;;;;;;;;;;;;;;;;;;6060728;23;19921;-87
2023/03/11 01:49:40;;;;;;;;;;;;;;;;;;6062682;23;19969;-86
2023/03/11 01:52:07;;;;;;;;;;;;;;;;;;6061282;23;20550;-86
2023/03/11 01:54:41;;;;;;;;;;;;;;;;;;6061636;23;19932;-87
2023/03/11 01:57:08;;;;;;;;;;;;;;;;;;6058487;23;20033;-87
2023/03/11 01:59:42;;;;;;;;;;;;;;;;;;6059373;23;20000;-86
2023/03/11 02:02:09;;;;;;;;;;;;;;;;;;6060973;23;19977;-87
2023/03/11 02:04:37;;;;;;;;;;;;;;;;;;6062794;23;20366;-87
2023/03/11 02:07:10;;;;;;;;;;;;;;;;;;6059381;23;20327;-87
2023/03/11 02:09:37;;;;;;;;;;;;;;;;;;6062322;23;20251;-86
2023/03/11 02:12:11;;;;;;;;;;;;;;;;;;6059598;23;20252;-86
2023/03/11 02:14:38;;;;;;;;;;;;;;;;;;6060819;23;20381;-87
2023/03/11 02:17:06;;;;;;;;;;;;;;;;;;6061952;23;20000;-86
2023/03/11 02:19:39;;;;;;;;;;;;;;;;;;6060979;23;19926;-86
2023/03/11 02:22:06;;;;;;;;;;;;;;;;;;6059606;23;20000;-86
2023/03/11 02:24:40;;;;;;;;;;;;;;;;;;6060035;23;19925;-86
2023/03/11 02:27:07;;;;;;;;;;;;;;;;;;6060609;23;20229;-87
2023/03/11 02:29:41;;;;;;;;;;;;;;;;;;6059926;23;20387;-86
2023/03/11 02:32:08;;;;;;;;;;;;;;;;;;6059839;23;19957;-87
2023/03/11 02:34:42;;;;;;;;;;;;;;;;;;6061242;23;20288;-86
2023/03/11 02:37:16;;;;;;;;;;;;;;;;;;6059931;23;19921;-87
2023/03/11 02:39:50;;;;;;;;;;;;;;;;;;6061745;23;19960;-86
2023/03/11 02:42:18;;;;;;;;;;;;;;;;;;6060939;23;20009;-87
2023/03/11 02:44:45;;;;;;;;;;;;;;;;;;6062179;23;19977;-87
2023/03/11 02:47:18;;;;;;;;;;;;;;;;;;6059449;23;19926;-86
2023/03/11 02:49:45;;;;;;;;;;;;;;;;;;6059088;23;20293;-87
2023/03/11 02:52:19;;;;;;;;;;;;;;;;;;6059999;23;19943;-85
2023/03/11 02:54:46;;;;;;;;;;;;;;;;;;6061977;23;19921;-87
2023/03/11 02:57:13;;;;;;;;;;;;;;;;;;6060458;23;19921;-86
2023/03/11 02:59:47;;;;;;;;;;;;;;;;;;6060714;23;20267;-87
2023/03/11 03:02:14;;;;;;;;;;;;;;;;;;6062278;23;19925;-86
2023/03/11 03:04:41;;;;;;;;;;;;;;;;;;6061188;23;19932;-87
2023/03/11 03:07:15;;;;;;;;;;;;;;;;;;6060807;23;19936;-87
2023/03/11 03:09:42;;;;;;;;;;;;;;;;;;6061435;23;19922;-86
2023/03/11 03:12:16;;;;;;;;;;;;;;;;;;6060389;23;19925;-86
2023/03/11 03:14:43;;;;;;;;;;;;;;;;;;6059898;23;20409;-86
2023/03/11 03:17:10;;;;;;;;;;;;;;;;;;6059974;23;20000;-87
2023/03/11 03:19:44;;;;;;;;;;;;;;;;;;6061011;23;19925;-86
2023/03/11 03:22:11;;;;;;;;;;;;;;;;;;6059834;23;20298;-86
2023/03/11 03:24:45;;;;;;;;;;;;;;;;;;6062735;23;19921;-87
2023/03/11 03:27:12;;;;;;;;;;;;;;;;;;6062252;23;19933;-87
2023/03/11 03:29:39;;;;;;;;;;;;;;;;;;6063647;23;19932;-87
2023/03/11 03:32:13;;;;;;;;;;;;;;;;;;6062125;23;19922;-86
2023/03/11 03:34:40;;;;;;;;;;;;;;;;;;6061408;23;20304;-86
2023/03/11 03:37:07;;;;;;;;;;;;;;;;;;6062459;23;19961;-86
2023/03/11 03:39:41;;;;;;;;;;;;;;;;;;6062112;23;19926;-86
2023/03/11 03:42:09;;;;;;;;;;;;;;;;;;6059994;23;19922;-86
2023/03/11 03:44:42;;;;;;;;;;;;;;;;;;6063429;23;19993;-84
2023/03/11 03:47:10;;;;;;;;;;;;;;;;;;6062762;23;20001;-83
2023/03/11 03:49:37;;;;;;;;;;;;;;;;;;6060769;23;19996;-85
2023/03/11 03:52:11;;;;;;;;;;;;;;;;;;6061445;23;20403;-83
2023/03/11 03:54:38;;;;;;;;;;;;;;;;;;6061164;23;20248;-83
2023/03/11 03:57:12;;;;;;;;;;;;;;;;;;6061363;23;19932;-84
2023/03/11 03:59:39;;;;;;;;;;;;;;;;;;6061416;23;19928;-84
2023/03/11 04:02:06;;;;;;;;;;;;;;;;;;6062835;23;19932;-84
2023/03/11 04:04:40;;;;;;;;;;;;;;;;;;6061702;23;19925;-84
2023/03/11 04:07:07;;;;;;;;;;;;;;;;;;6061184;23;19971;-84
2023/03/11 04:09:41;;;;;;;;;;;;;;;;;;6061999;23;19926;-84
2023/03/11 04:12:08;;;;;;;;;;;;;;;;;;6061975;23;19932;-84
2023/03/11 04:14:36;;;;;;;;;;;;;;;;;;6062370;23;19926;-84
2023/03/11 04:17:11;;;;;;;;;;;;;;;;;;6061644;23;20340;-83
2023/03/11 04:19:38;;;;;;;;;;;;;;;;;;6062159;23;19930;-83
2023/03/11 04:22:11;;;;;;;;;;;;;;;;;;6063661;23;20246;-84
2023/03/11 04:24:38;;;;;;;;;;;;;;;;;;6063378;23;19969;-83
2023/03/11 04:27:05;;;;;;;;;;;;;;;;;;6062091;23;20000;-83
2023/03/11 04:29:39;;;;;;;;;;;;;;;;;;6062228;23;20004;-83
2023/03/11 04:32:06;;;;;;;;;;;;;;;;;;6061360;23;19929;-83
2023/03/11 04:34:40;;;;;;;;;;;;;;;;;;6062017;23;19925;-83
2023/03/11 04:37:07;;;;;;;;;;;;;;;;;;6062497;23;19961;-83
2023/03/11 04:39:34;;;;;;;;;;;;;;;;;;6063138;23;20258;-84
2023/03/11 04:42:08;;;;;;;;;;;;;;;;;;6061974;23;19925;-83
2023/03/11 04:44:35;;;;;;;;;;;;;;;;;;6059333;23;19925;-84
2023/03/11 04:47:09;;;;;;;;;;;;;;;;;;6061076;23;19928;-84
2023/03/11 04:49:36;;;;;;;;;;;;;;;;;;6061563;23;20301;-84
2023/03/11 04:52:04;;;;;;;;;;;;;;;;;;6059256;23;20246;-83
2023/03/11 04:54:37;;;;;;;;;;;;;;;;;;6059764;23;20005;-84
2023/03/11 04:57:04;;;;;;;;;;;;;;;;;;6060195;23;19960;-83
2023/03/11 04:59:38;;;;;;;;;;;;;;;;;;6063448;23;20332;-87
2023/03/11 05:02:05;;;;;;;;;;;;;;;;;;6059018;23;20435;-87
2023/03/11 05:04:32;;;;;;;;;;;;;;;;;;6061359;23;20017;-86
2023/03/11 05:07:06;;;;;;;;;;;;;;;;;;6060439;23;19921;-86
2023/03/11 05:09:33;;;;;;;;;;;;;;;;;;6061936;23;19930;-85
2023/03/11 05:12:01;;;;;;;;;;;;;;;;;;6061146;23;20395;-86
2023/03/11 05:14:34;;;;;;;;;;;;;;;;;;6062547;23;20344;-87
2023/03/11 05:17:01;;;;;;;;;;;;;;;;;;6061130;23;19926;-86
2023/03/11 05:19:35;;;;;;;;;;;;;;;;;;6061857;23;19926;-87
2023/03/11 05:22:05;;;;;;;;;;;;;;;;;;6060405;23;20347;-86
2023/03/11 05:24:33;;;;;;;;;;;;;;;;;;6059708;23;19981;-87
2023/03/11 05:27:06;;;;;;;;;;;;;;;;;;6060906;23;19925;-86
2023/03/11 05:29:33;;;;;;;;;;;;;;;;;;6061329;23;19921;-86
2023/03/11 05:32:07;;;;;;;;;;;;;;;;;;6059950;23;19930;-86
2023/03/11 05:34:34;;;;;;;;;;;;;;;;;;6062755;23;19928;-87
2023/03/11 05:37:02;;;;;;;;;;;;;;;;;;6060635;23;19925;-87
2023/03/11 05:39:36;;;;;;;;;;;;;;;;;;6061451;23;19931;-86
2023/03/11 05:42:03;;;;;;;;;;;;;;;;;;6059825;23;19926;-86
2023/03/11 05:44:36;;;;;;;;;;;;;;;;;;6063088;23;19928;-86
2023/03/11 05:47:03;;;;;;;;;;;;;;;;;;6062116;23;20280;-87
2023/03/11 05:49:30;;;;;;;;;;;;;;;;;;6061667;23;20028;-86
2023/03/11 05:52:04;;;;;;;;;;;;;;;;;;6062276;23;19925;-85
2023/03/11 05:54:31;;;;;;;;;;;;;;;;;;6060318;23;19925;-85
2023/03/11 05:57:05;;;;;;;;;;;;;;;;;;6061734;23;19936;-86
2023/03/11 05:59:34;;;;;;;;;;;;;;;;;;6062847;23;19928;-85
2023/03/11 06:02:01;;;;;;;;;;;;;;;;;;6059222;23;19921;-85
2023/03/11 06:04:34;;;;;;;;;;;;;;;;;;6059531;23;19966;-86
2023/03/11 06:07:02;;;;;;;;;;;;;;;;;;6059706;23;19926;-85
2023/03/11 06:09:29;;;;;;;;;;;;;;;;;;6059233;23;19968;-85
2023/03/11 06:12:02;;;;;;;;;;;;;;;;;;6060570;23;19956;-86
2023/03/11 06:14:31;;;;;;;;;;;;;;;;;;6059910;23;19922;-85
2023/03/11 06:17:04;;;;;;;;;;;;;;;;;;6058921;23;20044;-86
2023/03/11 06:19:31;;;;;;;;;;;;;;;;;;6059546;23;19922;-84
2023/03/11 06:21:58;;;;;;;;;;;;;;;;;;6060799;23;20043;-85
2023/03/11 06:24:32;;;;;;;;;;;;;;;;;;6058940;23;19932;-84
2023/03/11 06:26:59;;;;;;;;;;;;;;;;;;6061651;23;20001;-85
2023/03/11 06:29:33;;;;;;;;;;;;;;;;;;6060515;23;19949;-84
2023/03/11 06:32:01;;;;;;;;;;;;;;;;;;6060736;23;19925;-85
2023/03/11 06:34:28;;;;;;;;;;;;;;;;;;6061469;23;20263;-84
2023/03/11 06:37:01;;;;;;;;;;;;;;;;;;6060724;23;19949;-83
2023/03/11 06:39:29;;;;;;;;;;;;;;;;;;6056173;23;20008;-84
2023/03/11 06:41:56;;;;;;;;;;;;;;;;;;6058280;23;20318;-84
2023/03/11 06:44:30;;;;;;;;;;;;;;;;;;6060401;23;19926;-84
2023/03/11 06:46:57;;;;;;;;;;;;;;;;;;6060039;23;19964;-85
2023/03/11 06:49:31;;;;;;;;;;;;;;;;;;6058556;23;19921;-84
2023/03/11 06:51:58;;;;;;;;;;;;;;;;;;6061697;23;19934;-84
2023/03/11 06:54:25;;;;;;;;;;;;;;;;;;6059315;23;20400;-84
2023/03/11 06:56:59;;;;;;;;;;;;;;;;;;6063183;23;20358;-84
2023/03/11 06:59:27;;;;;;;;;;;;;;;;;;6063764;23;19928;-84
2023/03/11 07:02:01;;;;;;;;;;;;;;;;;;6059288;23;20416;-84
2023/03/11 07:04:28;;;;;;;;;;;;;;;;;;6059057;23;19992;-84
2023/03/11 07:06:55;;;;;;;;;;;;;;;;;;6061261;23;19972;-84
2023/03/11 07:09:28;;;;;;;;;;;;;;;;;;6062760;23;19952;-84
2023/03/11 07:11:56;;;;;;;;;;;;;;;;;;6062777;23;20008;-86
2023/03/11 07:14:32;;;;;;;;;;;;;;;;;;6061080;23;19926;-83
2023/03/11 07:16:59;;;;;;;;;;;;;;;;;;6062947;23;20316;-85
2023/03/11 07:19:26;;;;;;;;;;;;;;;;;;6061486;23;19921;-85
2023/03/11 07:22:00;;;;;;;;;;;;;;;;;;6061645;23;20271;-86
2023/03/11 07:24:34;;;;;;;;;;;;;;;;;;6066312;23;19971;-86
2023/03/11 07:27:01;;;;;;;;;;;;;;;;;;6063874;23;20340;-85
2023/03/11 07:29:29;;;;;;;;;;;;;;;;;;6061057;23;19977;-86
2023/03/11 07:32:03;;;;;;;;;;;;;;;;;;6061984;23;19925;-85
2023/03/11 07:34:30;;;;;;;;;;;;;;;;;;6059742;23;19932;-85
2023/03/11 07:37:10;;;;;;;;;;;;;;;;;;6057212;23;20356;-84
2023/03/11 07:39:44;;;;;;;;;;;;;;;;;;6057603;23;20032;-85
2023/03/11 07:42:19;;;;;;;;;;;;;;;;;;6059047;23;20304;-85
2023/03/11 07:44:52;;;;;;;;;;;;;;;;;;6061466;23;20008;-85
2023/03/11 07:47:26;;;;;;;;;;;;;;;;;;6059135;23;20254;-85
2023/03/11 07:49:53;;;;;;;;;;;;;;;;;;6056663;23;19961;-84
2023/03/11 07:52:27;;;;;;;;;;;;;;;;;;6059859;23;19932;-85
2023/03/11 07:54:55;;;;;;;;;;;;;;;;;;6059544;23;19973;-85
2023/03/11 07:57:22;;;;;;;;;;;;;;;;;;6060556;23;20274;-85
2023/03/11 07:59:56;;;;;;;;;;;;;;;;;;6056184;23;19932;-85
2023/03/11 08:02:23;;;;;;;;;;;;;;;;;;6057346;23;19932;-84
2023/03/11 08:04:56;;;;;;;;;;;;;;;;;;6059154;23;20348;-84
2023/03/11 08:07:31;;;;;;;;;;;;;;;;;;6062946;23;19922;-82
2023/03/11 08:09:58;;;;;;;;;;;;;;;;;;6061071;23;20004;-82
2023/03/11 08:12:25;;;;;;;;;;;;;;;;;;6063024;23;20013;-82
2023/03/11 08:14:58;;;;;;;;;;;;;;;;;;6061954;23;20327;-82
2023/03/11 08:17:25;;;;;;;;;;;;;;;;;;6062158;23;19972;-82
2023/03/11 08:20:00;;;;;;;;;;;;;;;;;;6060807;23;20004;-84
2023/03/11 08:22:27;;;;;;;;;;;;;;;;;;6062530;23;19922;-84
2023/03/11 08:24:55;;;;;;;;;;;;;;;;;;6062776;23;19952;-85
2023/03/11 08:27:28;;;;;;;;;;;;;;;;;;6062946;23;19930;-86
2023/03/11 08:29:55;;;;;;;;;;;;;;;;;;6062544;23;20553;-85
2023/03/11 08:32:23;;;;;;;;;;;;;;;;;;6061211;23;19961;-84
2023/03/11 08:34:56;;;;;;;;;;;;;;;;;;6062537;23;19930;-84
2023/03/11 08:37:24;;;;;;;;;;;;;;;;;;6057387;23;20008;-83
2023/03/11 08:39:57;;;;;;;;;;;;;;;;;;6059781;23;20244;-83
2023/03/11 08:42:25;;;;;;;;;;;;;;;;;;6061139;23;19997;-83
2023/03/11 08:44:52;;;;;;;;;;;;;;;;;;6062765;23;19921;-84
2023/03/11 08:47:25;;;;;;;;;;;;;;;;;;6060704;23;19925;-82
2023/03/11 08:49:52;;;;;;;;;;;;;;;;;;6061842;23;19933;-82
2023/03/11 08:52:26;;;;;;;;;;;;;;;;;;6061546;23;19945;-81
2023/03/11 08:54:54;;;;;;;;;;;;;;;;;;6061249;23;20371;-82
2023/03/11 08:57:21;;;;;;;;;;;;;;;;;;6062661;23;20359;-83
2023/03/11 08:59:57;;;;;;;;;;;;;;;;;;6062816;23;19957;-83
2023/03/11 09:02:24;;;;;;;;;;;;;;;;;;6060549;23;19955;-83
2023/03/11 09:04:58;;;;;;;;;;;;;;;;;;6061488;23;19926;-82
2023/03/11 09:07:25;;;;;;;;;;;;;;;;;;6062275;23;19926;-81
2023/03/11 09:09:53;;;;;;;;;;;;;;;;;;6062087;23;19945;-80
2023/03/11 09:12:26;;;;;;;;;;;;;;;;;;6062591;23;19990;-82
2023/03/11 09:14:55;;;;;;;;;;;;;;;;;;6063084;23;19972;-80
2023/03/11 09:17:29;;;;;;;;;;;;;;;;;;6063179;23;19922;-80
2023/03/11 09:19:56;;;;;;;;;;;;;;;;;;6063110;23;20400;-81
2023/03/11 09:22:23;;;;;;;;;;;;;;;;;;6062200;23;19925;-81
2023/03/11 09:24:56;;;;;;;;;;;;;;;;;;6060379;23;20000;-80
2023/03/11 09:27:24;;;;;;;;;;;;;;;;;;6061757;23;20395;-80
2023/03/11 09:29:57;;;;;;;;;;;;;;;;;;6063169;23;19926;-81
2023/03/11 09:32:24;;;;;;;;;;;;;;;;;;6058748;23;20271;-81
2023/03/11 09:34:51;;;;;;;;;;;;;;;;;;6062177;23;19977;-83
2023/03/11 09:37:25;;;;;;;;;;;;;;;;;;6058605;23;19992;-82
2023/03/11 09:39:52;;;;;;;;;;;;;;;;;;6057698;23;20429;-83
2023/03/11 09:42:26;;;;;;;;;;;;;;;;;;6059849;23;20358;-82
2023/03/11 09:44:53;;;;;;;;;;;;;;;;;;6059603;23;20000;-82
2023/03/11 09:47:21;;;;;;;;;;;;;;;;;;6058341;23;20004;-85
2023/03/11 09:49:54;;;;;;;;;;;;;;;;;;6061265;23;20009;-83
2023/03/11 09:52:21;;;;;;;;;;;;;;;;;;6060026;23;19996;-83
2023/03/11 09:54:55;;;;;;;;;;;;;;;;;;6058274;23;19989;-82
2023/03/11 09:57:22;;;;;;;;;;;;;;;;;;6060609;23;20396;-82
2023/03/11 09:59:56;;;;;;;;;;;;;;;;;;6059035;23;20020;-84
2023/03/11 10:02:26;;;;;;;;;;;;;;;;;;6061096;23;19922;-81
2023/03/11 10:05:00;;;;;;;;;;;;;;;;;;6061520;23;19921;-81
2023/03/11 10:07:28;;;;;;;;;;;;;;;;;;6061446;23;19989;-81
2023/03/11 10:10:02;;;;;;;;;;;;;;;;;;6060296;23;20264;-81
2023/03/11 10:12:29;;;;;;;;;;;;;;;;;;6060987;23;19968;-81
2023/03/11 10:14:56;;;;;;;;;;;;;;;;;;6059967;23;19965;-81
2023/03/11 10:17:30;;;;;;;;;;;;;;;;;;6062095;23;19985;-82
2023/03/11 10:19:57;;;;;;;;;;;;;;;;;;6061847;23;20415;-81
2023/03/11 10:22:31;;;;;;;;;;;;;;;;;;6061062;23;20000;-81
2023/03/11 10:24:58;;;;;;;;;;;;;;;;;;6061267;23;20028;-81
2023/03/11 10:27:33;;;;;;;;;;;;;;;;;;6061330;23;19925;-81
2023/03/11 10:30:00;;;;;;;;;;;;;;;;;;6061173;23;20036;-81
2023/03/11 10:32:34;;;;;;;;;;;;;;;;;;6062414;23;20385;-81
2023/03/11 10:35:01;;;;;;;;;;;;;;;;;;6063722;23;19929;-81
2023/03/11 10:37:28;;;;;;;;;;;;;;;;;;6062965;23;20315;-81
2023/03/11 10:40:14;;;;;;;;;;;;;;;;;;6063259;23;19928;-81
2023/03/11 10:42:41;;;;;;;;;;;;;;;;;;6063802;23;20001;-82
2023/03/11 10:45:15;;;;;;;;;;;;;;;;;;6063029;23;19936;-81
2023/03/11 10:47:43;;;;;;;;;;;;;;;;;;6062824;23;19969;-81
2023/03/11 10:50:16;;;;;;;;;;;;;;;;;;6063512;23;19968;-82
2023/03/11 10:52:43;;;;;;;;;;;;;;;;;;6062997;23;19977;-82
2023/03/11 10:55:18;;;;;;;;;;;;;;;;;;6062782;23;19932;-82
2023/03/11 10:57:46;;;;;;;;;;;;;;;;;;6064055;23;19926;-81
2023/03/11 11:00:20;;;;;;;;;;;;;;;;;;6064403;23;20310;-81
2023/03/11 11:02:47;;;;;;;;;;;;;;;;;;6064447;23;20059;-81
2023/03/11 11:05:20;;;;;;;;;;;;;;;;;;6063902;23;19961;-81
2023/03/11 11:07:47;;;;;;;;;;;;;;;;;;6063388;23;19949;-81
2023/03/11 11:10:22;;;;;;;;;;;;;;;;;;6063398;23;19925;-81
2023/03/11 11:12:49;;;;;;;;;;;;;;;;;;6063898;23;19921;-81
2023/03/11 11:15:22;;;;;;;;;;;;;;;;;;6064173;23;20000;-81
2023/03/11 11:17:50;;;;;;;;;;;;;;;;;;6062458;23;19929;-81
2023/03/11 11:20:17;;;;;;;;;;;;;;;;;;6061231;23;19929;-81
2023/03/11 11:22:50;;;;;;;;;;;;;;;;;;6063696;23;19952;-81
2023/03/11 11:25:17;;;;;;;;;;;;;;;;;;6062466;23;19922;-81
2023/03/11 11:27:51;;;;;;;;;;;;;;;;;;6062816;23;19928;-81
2023/03/11 11:30:18;;;;;;;;;;;;;;;;;;6062929;23;20483;-81
2023/03/11 11:32:54;;;;;;;;;;;;;;;;;;6063031;23;20371;-81
2023/03/11 11:35:21;;;;;;;;;;;;;;;;;;6062201;23;19933;-81
2023/03/11 11:37:48;;;;;;;;;;;;;;;;;;6062269;23;20290;-81
2023/03/11 11:40:21;;;;;;;;;;;;;;;;;;6060489;23;19926;-81
2023/03/11 11:42:49;;;;;;;;;;;;;;;;;;6063026;23;20013;-81
2023/03/11 11:45:22;;;;;;;;;;;;;;;;;;6062930;23;20013;-81
2023/03/11 11:47:50;;;;;;;;;;;;;;;;;;6061038;23;19977;-81
2023/03/11 11:50:17;;;;;;;;;;;;;;;;;;6060035;23;19925;-81
2023/03/11 11:52:50;;;;;;;;;;;;;;;;;;6062075;23;19932;-81
2023/03/11 11:55:18;;;;;;;;;;;;;;;;;;6062768;23;20013;-81
2023/03/11 11:57:52;;;;;;;;;;;;;;;;;;6061820;23;19968;-81
2023/03/11 12:00:20;;;;;;;;;;;;;;;;;;6062804;23;19936;-81
2023/03/11 12:02:53;;;;;;;;;;;;;;;;;;6063005;23;19993;-81
2023/03/11 12:05:21;;;;;;;;;;;;;;;;;;6058572;23;20423;-81
2023/03/11 12:07:48;;;;;;;;;;;;;;;;;;6058548;23;19932;-81
2023/03/11 12:10:21;;;;;;;;;;;;;;;;;;6058730;23;20263;-82
2023/03/11 12:12:50;;;;;;;;;;;;;;;;;;6059577;23;20304;-82
2023/03/11 12:15:23;;;;;;;;;;;;;;;;;;6059154;23;19926;-82
2023/03/11 12:17:50;;;;;;;;;;;;;;;;;;6057400;23;19962;-83
2023/03/11 12:20:17;;;;;;;;;;;;;;;;;;6056914;23;20387;-83
2023/03/11 12:22:51;;;;;;;;;;;;;;;;;;6055554;23;20270;-84
2023/03/11 12:25:21;;;;;;;;;;;;;;;;;;6055453;23;20004;-84
2023/03/11 12:27:56;;;;;;;;;;;;;;;;;;6059214;23;20375;-84
2023/03/11 12:30:23;;;;;;;;;;;;;;;;;;6059710;23;19926;-84
2023/03/11 12:32:56;;;;;;;;;;;;;;;;;;6058134;23;19968;-84
2023/03/11 12:35:25;;;;;;;;;;;;;;;;;;6059238;23;19926;-83
2023/03/11 12:37:59;;;;;;;;;;;;;;;;;;6058297;23;20008;-84
2023/03/11 12:40:26;;;;;;;;;;;;;;;;;;6059329;23;19931;-84
2023/03/11 12:42:53;;;;;;;;;;;;;;;;;;6058179;23;19960;-83
2023/03/11 12:45:26;;;;;;;;;;;;;;;;;;6055958;23;19932;-83
2023/03/11 12:47:53;;;;;;;;;;;;;;;;;;6057393;23;19926;-83
2023/03/11 12:50:27;;;;;;;;;;;;;;;;;;6060988;23;20310;-83
2023/03/11 12:52:54;;;;;;;;;;;;;;;;;;6058929;23;20005;-83
2023/03/11 12:55:29;;;;;;;;;;;;;;;;;;6061549;23;19988;-83
2023/03/11 12:57:57;;;;;;;;;;;;;;;;;;6060133;23;20316;-83
2023/03/11 13:00:31;;;;;;;;;;;;;;;;;;6060805;23;19926;-83
2023/03/11 13:02:58;;;;;;;;;;;;;;;;;;6059045;23;20281;-84
2023/03/11 13:05:25;;;;;;;;;;;;;;;;;;6059631;23;20005;-84
2023/03/11 13:07:58;;;;;;;;;;;;;;;;;;6062392;23;19961;-85
2023/03/11 13:10:25;;;;;;;;;;;;;;;;;;6061238;23;20259;-83
2023/03/11 13:12:59;;;;;;;;;;;;;;;;;;6059833;23;19996;-83
2023/03/11 13:15:26;;;;;;;;;;;;;;;;;;6055088;23;20388;-83
2023/03/11 13:18:06;;;;;;;;;;;;;;;;;;5995117;23;21281;-83
2023/03/11 13:20:33;;;;;;;;;;;;;;;;;;5975982;23;140295;-83
2023/03/11 13:23:28;;;;;;;;;;;;;;;;;;4816719;27;8152328;-61
2023/03/11 13:26:01;;;;;;;;;;;;;;;;;;5117490;27;19927;-62
2023/03/11 13:32:11;;;;;;;3.22;1.70;;;;;;;;;;4803474;27;8194841;-61
2023/03/11 13:34:58;;;;;;;2.85;1.80;;;;;;;;;;5067479;28;20056;-56
2023/03/11 13:37:40;;;;;;;3.00;1.50;;;;;;;;;;5068855;28;20410;-57
2023/03/11 13:40:28;;;;;;;4.32;1.77;;;;;;;;;;5067023;28;20049;-58
2023/03/11 13:42:57;;;;;;;6.43;2.45;;;;;;;;;;5068542;28;20551;-59
2023/03/11 13:45:34;;;;;;;7.88;2.45;;;;;;;;;;5069394;28;20052;-57
2023/03/11 13:48:04;;;;;;;5.90;1.90;;;;;;;;;;5067920;28;20168;-57
2023/03/11 13:50:42;;;;;;;6.25;2.20;;;;;;;;;;5067763;28;21035;-58
2023/03/11 13:53:30;;;;;;;3.55;1.73;;;;;;;;;;5064516;28;20048;-63
2023/03/11 13:56:04;;;;;;;6.13;1.98;;;;;;;;;;5026375;28;20559;-53
2023/03/11 13:58:37;;;;;;;5.28;3.55;;;;;;;;;;5069441;28;21049;-51
2023/03/11 14:01:15;;;;;;;5.70;2.22;;;;;;;;;;5068620;28;20426;-53
2023/03/11 14:03:43;;;;;;;5.65;2.22;;;;;;;;;;5051685;28;20520;-51
2023/03/11 14:06:17;;;;;;;5.82;1.95;;;;;;;;;;5067362;28;20052;-54
2023/03/11 14:08:53;;;;;;;1.63;1.50;;;;;;;;;;5065165;28;20047;-55
2023/03/11 14:11:25;;;;;;;3.53;1.60;;;;;;;;;;5071497;28;20052;-54
2023/03/11 14:14:00;;;;;;;1.95;1.23;;;;;;;;;;5064888;28;20051;-56
2023/03/11 14:16:42;;;;;;;4.80;1.48;;;;;;;;;;5066954;28;20056;-50
2023/03/11 14:19:18;;;;;;;5.25;1.88;;;;;;;;;;5074703;28;20048;-52
2023/03/11 14:21:53;;;;;;;1.15;1.05;;;;;;;;;;5069618;28;20148;-54
2023/03/11 14:24:29;;;;;;;1.80;1.40;;;;;;;;;;5075669;28;20434;-56
2023/03/11 14:27:06;;;;;;;4.00;1.58;;;;;;;;;;5073054;28;20133;-55
2023/03/11 14:29:38;;;;;;;5.78;1.90;;;;;;;;;;5071167;28;20155;-62
2023/03/11 14:32:31;;;;;;;5.97;1.48;;;;;;;;;;5064536;28;20751;-62
2023/03/11 14:34:58;;;;;;;3.50;1.50;;;;;;;;;;5068829;28;20052;-51
2023/03/11 14:37:37;;;;;;;4.40;1.60;;;;;;;;;;5074105;28;20087;-56
2023/03/11 14:40:19;;;;;;;5.22;1.85;;;;;;;;;;5072145;28;20175;-53
2023/03/11 14:42:55;;;;;;;6.68;1.70;;;;;;;;;;5055421;28;20036;-52
2023/03/11 14:45:24;;;;;;;5.32;1.67;;;;;;;;;;5056254;28;20135;-49
2023/03/11 14:48:04;;;;;;;8.43;2.58;;;;;;;;;;5056299;28;20139;-60
2023/03/11 14:50:34;;;;;;;2.20;1.08;;;;;;;;;;5061727;28;20059;-50
2023/03/11 14:53:26;;;;;;;7.63;1.23;;;;;;;;;;5054783;28;20048;-63
2023/03/11 14:55:58;;;;;;;2.60;1.08;;;;;;;;;;5057319;28;20074;-63
2023/03/11 14:58:33;;;;;;;;;;;;;;;;;;5056913;28;20496;-63
2023/03/11 15:01:12;;;;;;;4.43;1.27;;;;;;;;;;5055634;28;19939;-63
2023/03/11 15:03:49;;;;;;;5.50;1.15;;;;;;;;;;5054358;28;20071;-63
2023/03/11 15:06:19;;;;;;;5.57;1.17;;;;;;;;;;5058078;28;20052;-62
2023/03/11 15:09:01;;;;;;;5.45;1.50;;;;;;;;;;5058356;28;20044;-59
2023/03/11 15:11:28;;;;;;;3.35;1.00;;;;;;;;;;5055684;28;20105;-55
2023/03/11 15:14:35;;;;;;;8.10;1.48;;;;;;;;;;5058647;28;20051;-53
2023/03/11 15:17:30;;;;;;;7.88;1.50;;;;;;;;;;5008192;28;20044;-57
2023/03/11 15:20:23;;;;;;;5.13;1.15;;;;;;;;;;5057588;28;20103;-52
2023/03/11 15:23:02;;;;;;;5.03;1.08;;;;;;;;;;5060081;28;20057;-55
2023/03/11 15:25:33;;;;;;;5.35;1.25;;;;;;;;;;5055967;28;20134;-64
2023/03/11 15:28:07;;;;;;;;;;;;;;;;;;5061161;28;20052;-64
2023/03/11 15:30:34;;;;;;;5.32;1.17;;;;;;;;;;5056037;28;19952;-63
2023/03/11 15:33:20;;;;;;;6.53;1.25;;;;;;;;;;5058780;28;20109;-63
2023/03/11 15:35:47;;;;;;;8.38;1.42;;;;;;;;;;5059882;28;20503;-62
2023/03/11 15:38:24;;;;;;;3.90;1.20;;;;;;;;;;5055981;28;20052;-62
2023/03/11 15:41:01;;;;;;;3.25;1.23;;;;;;;;;;5058604;28;20601;-62
2023/03/11 15:43:46;;;;;;;8.25;1.05;;;;;;;;;;5057554;28;20063;-64
2023/03/11 15:46:14;;;;;;;3.50;1.45;;;;;;;;;;5058210;28;20522;-51
2023/03/11 15:48:48;;;;;;;3.38;0.95;;;;;;;;;;5057870;28;20059;-52
2023/03/11 15:51:19;;;;;;;3.05;0.80;;;;;;;;;;5053830;28;20388;-55
2023/03/11 15:53:46;;;;;;;4.65;1.23;;;;;;;;;;5059963;28;20093;-54
2023/03/11 15:56:22;;;;;;;4.82;1.00;;;;;;;;;;5055736;28;20044;-52
2023/03/11 15:58:49;;;;;;;2.38;1.10;;;;;;;;;;5057889;28;20106;-50
2023/03/11 16:01:27;;;;;;;4.18;1.27;;;;;;;;;;5057962;28;20052;-55
2023/03/11 16:03:54;;;;;;;2.83;1.35;;;;;;;;;;5055899;28;20049;-56
2023/03/11 16:06:22;;;;;;;3.50;1.05;;;;;;;;;;5058084;28;20551;-59
2023/03/11 16:08:56;;;;;;;6.13;1.60;;;;;;;;;;5040390;28;20534;-60
2023/03/11 16:11:23;;;;;;;4.15;1.63;;;;;;;;;;5054429;28;20052;-60
2023/03/11 16:13:56;;;;;;;4.22;1.80;;;;;;;;;;5059983;28;22613;-59
2023/03/11 16:16:24;;;;;;;3.38;1.90;;;;;;;;;;5055633;28;20424;-59
2023/03/11 16:18:58;;;;;;;3.05;1.50;;;;;;;;;;5055926;28;20047;-59
2023/03/11 16:21:28;;;;;;;4.07;1.88;;;;;;;;;;5052975;28;20084;-53
2023/03/11 16:23:55;;;;;;;5.82;2.30;;;;;;;;;;5058183;28;20892;-62
2023/03/11 16:26:29;;;;;;;6.70;1.92;;;;;;;;;;5055353;28;20052;-63
2023/03/11 16:28:56;;;;;;;6.15;1.80;;;;;;;;;;5059365;28;20152;-62
2023/03/11 16:31:51;;;;;;;3.60;1.75;;;;;;;;;;5054950;28;20059;-62
2023/03/11 16:34:19;;;;;;;9.57;1.92;;;;;;;;;;5056488;28;20049;-63
2023/03/11 16:36:52;;;;;;;3.80;1.52;;;;;;;;;;5054676;28;20049;-62
2023/03/11 16:39:19;;;;;;;1.20;1.10;;;;;;;;;;5056146;28;20055;-55
2023/03/11 16:41:54;;;;;;;3.80;1.33;;;;;;;;;;5056380;28;20423;-53
2023/03/11 16:44:21;;;;;;;2.83;1.67;;;;;;;;;;5054863;28;20520;-54
2023/03/11 16:46:48;;;;;;;3.35;1.40;;;;;;;;;;5056665;28;20049;-57
2023/03/11 16:49:21;;;;;;;3.65;1.48;;;;;;;;;;5052480;28;20053;-56